Weather at Helipad Masseria del Cardinale

Public forecast

Using degrees Celsius for public forecast. Weather courtesy of forecast.io.

Closest aviation weather report (METAR) to Helipad Masseria del Cardinale

Closest report is Taranto-Grottaglie "Marcello Arlotta" Airport, 17.2 nm (31.8 km) S.

2024/05/21 13:50 (retrieved 34 minutes ago)

LIBG 211350Z 22015KT CAVOK 28/15 Q1008

Closest aviation forecast (TAF) to Helipad Masseria del Cardinale

Closest forecast is Brindisi Airport, 24.5 nm (45.3 km) ESE.

2024/05/21 12:00 (retrieved 2 hours ago)

TAF LIBR 211100Z 2112/2212 20015KT CAVOK BECMG 2119/2121 26015KT BECMG 2208/2210 36012KT